Time;durP1;ratioP1;P1;durP2;ratioP2;P2;SDS_P1;SDS_P2;PMS_P1;PMS_P2;Temp;Humidity;BMP_temperature;BMP_pressure;BME280_temperature;BME280_humidity;BME280_pressure;Samples;Min_cycle;Max_cycle;Signal;HPM_P1;HPM_P2
2021/04/20 00:00:58;;;;;;;12.82;9.02;;;;;;;8.98;61.32;100567.66;5061522;28;20028;-79
2021/04/20 00:03:23;;;;;;;13.90;9.00;;;;;;;8.97;61.01;100565.16;5096426;28;20035;-79
2021/04/20 00:05:49;;;;;;;14.32;10.15;;;;;;;8.95;60.88;100563.50;5096440;28;20024;-78
2021/04/20 00:08:14;;;;;;;14.10;9.95;;;;;;;8.92;61.52;100566.84;5050856;28;20047;-78
2021/04/20 00:10:40;;;;;;;14.05;10.77;;;;;;;8.94;61.72;100561.84;5061454;28;20502;-78
2021/04/20 00:13:06;;;;;;;12.48;9.75;;;;;;;8.93;61.34;100559.34;5044736;28;20034;-78
2021/04/20 00:15:32;;;;;;;15.60;9.95;;;;;;;8.90;61.49;100555.22;5096155;28;20094;-78
2021/04/20 00:17:58;;;;;;;14.48;10.32;;;;;;;8.91;61.68;100558.81;5077163;28;20039;-78
2021/04/20 00:20:24;;;;;;;15.10;9.88;;;;;;;8.91;61.48;100562.44;5078013;28;20032;-78
2021/04/20 00:22:51;;;;;;;15.70;11.00;;;;;;;8.91;61.94;100562.44;5060929;28;20521;-78
2021/04/20 00:25:17;;;;;;;17.52;11.32;;;;;;;8.87;62.00;100561.31;5078053;28;20486;-79
2021/04/20 00:27:43;;;;;;;19.20;13.20;;;;;;;8.89;64.24;100563.81;5060846;28;20020;-79
2021/04/20 00:30:09;;;;;;;16.65;12.13;;;;;;;8.86;62.98;100554.13;5060694;28;20032;-79
2021/04/20 00:32:35;;;;;;;16.42;11.90;;;;;;;8.87;62.92;100554.94;5060908;28;20535;-78
2021/04/20 00:35:01;;;;;;;14.98;11.25;;;;;;;8.86;62.78;100553.28;5044125;28;20111;-79
2021/04/20 00:37:26;;;;;;;14.18;9.30;;;;;;;8.87;61.92;100550.22;5060667;28;20081;-78
2021/04/20 00:39:52;;;;;;;15.70;10.35;;;;;;;8.85;62.38;100546.09;5095562;28;20039;-78
2021/04/20 00:42:17;;;;;;;16.95;11.55;;;;;;;8.86;62.33;100547.72;5059880;28;20032;-78
2021/04/20 00:44:43;;;;;;;15.13;9.93;;;;;;;8.87;62.41;100549.41;5077099;28;20510;-78
2021/04/20 00:47:08;;;;;;;15.20;9.40;;;;;;;8.87;62.03;100549.41;5077295;28;20107;-78
2021/04/20 00:49:34;;;;;;;15.63;10.48;;;;;;;8.88;61.97;100540.81;5077545;28;20043;-78
2021/04/20 00:51:59;;;;;;;13.25;10.20;;;;;;;8.88;61.97;100537.22;5044147;28;20395;-78
2021/04/20 00:54:25;;;;;;;14.65;10.63;;;;;;;8.88;62.50;100537.22;5077245;28;20035;-78
2021/04/20 00:56:51;;;;;;;15.88;10.65;;;;;;;8.88;62.25;100539.97;5060554;28;20064;-79
2021/04/20 00:59:17;;;;;;;11.85;9.50;;;;;;;8.89;61.68;100534.16;5060186;28;20012;-79
2021/04/20 01:01:42;;;;;;;13.90;10.05;;;;;;;8.89;62.09;100534.16;5076963;28;20063;-78
2021/04/20 01:04:15;;;;;;;16.38;11.82;;;;;;;8.88;62.56;100537.22;5060591;28;20384;-79
2021/04/20 01:06:42;;;;;;;13.82;11.07;;;;;;;8.88;62.58;100531.66;5110603;28;20031;-78
2021/04/20 01:09:07;;;;;;;16.58;11.13;;;;;;;8.88;62.93;100528.91;5076653;28;20487;-78
2021/04/20 01:11:34;;;;;;;17.98;12.05;;;;;;;8.85;63.19;100527.53;5076235;28;20139;-78
2021/04/20 01:14:01;;;;;;;15.43;11.05;;;;;;;8.86;63.26;100529.19;5094946;28;20024;-78
2021/04/20 01:16:26;;;;;;;12.85;10.05;;;;;;;8.87;63.00;100527.25;5043729;28;20059;-79
2021/04/20 01:18:52;;;;;;;15.77;11.27;;;;;;;8.85;64.02;100538.59;5077796;28;20053;-78
2021/04/20 01:21:17;;;;;;;16.13;11.63;;;;;;;8.81;63.66;100525.63;5064401;28;20407;-79
2021/04/20 01:24:21;;;;;;;17.55;12.07;;;;;;;8.75;63.69;100524.81;5064116;28;20039;-79
2021/04/20 01:26:47;;;;;;;19.50;11.50;;;;;;;8.73;63.65;100525.06;5081337;28;20047;-78
2021/04/20 01:29:12;;;;;;;18.90;11.68;;;;;;;8.72;63.81;100520.66;5064095;28;20028;-78
2021/04/20 01:31:40;;;;;;;15.30;11.32;;;;;;;8.73;63.64;100518.72;5080572;28;20077;-78
2021/04/20 01:34:06;;;;;;;21.48;11.63;;;;;;;8.70;63.77;100522.03;5064027;28;20027;-78
2021/04/20 01:36:31;;;;;;;19.75;11.75;;;;;;;8.70;64.11;100516.50;5080841;28;20020;-78
2021/04/20 01:38:58;;;;;;;20.65;12.63;;;;;;;8.68;64.85;100505.69;5064043;28;20036;-78
2021/04/20 01:41:24;;;;;;;19.42;13.05;;;;;;;8.66;65.00;100509.84;5080974;28;20039;-78
2021/04/20 01:43:51;;;;;;;16.05;11.57;;;;;;;8.68;64.56;100507.66;5080519;28;20030;-78
2021/04/20 01:46:16;;;;;;;15.23;11.23;;;;;;;8.64;64.20;100506.56;5098003;28;20494;-79
2021/04/20 01:48:42;;;;;;;17.30;12.30;;;;;;;8.62;64.89;100506.00;5064315;28;20024;-79
2021/04/20 01:51:08;;;;;;;16.08;10.60;;;;;;;8.62;63.99;100509.59;5063961;28;20031;-78
2021/04/20 01:53:33;;;;;;;14.73;10.82;;;;;;;8.60;64.26;100506.28;5063874;28;20028;-78
2021/04/20 01:56:04;;;;;;;15.48;11.60;;;;;;;8.57;64.31;100506.84;5063881;28;20032;-79
2021/04/20 01:58:29;;;;;;;16.05;10.85;;;;;;;8.59;64.27;100506.56;5063507;28;20028;-79
2021/04/20 02:00:55;;;;;;;15.43;10.00;;;;;;;8.58;63.72;100508.53;5062039;28;20051;-78
2021/04/20 02:03:24;;;;;;;17.65;11.00;;;;;;;8.57;64.77;100501.31;5098169;28;20032;-78
2021/04/20 02:05:50;;;;;;;15.88;11.57;;;;;;;8.52;65.34;100504.06;5080756;28;20115;-78
2021/04/20 02:08:15;;;;;;;17.05;11.90;;;;;;;8.51;65.46;100505.19;5076435;28;20064;-78
2021/04/20 02:10:41;;;;;;;17.92;11.05;;;;;;;8.48;64.90;100497.47;5055342;28;20032;-78
2021/04/20 02:13:07;;;;;;;18.20;11.95;;;;;;;8.46;65.12;100494.13;5097184;28;20078;-79
2021/04/20 02:15:33;;;;;;;15.77;11.88;;;;;;;8.42;64.81;100487.53;5097289;28;20058;-78
2021/04/20 02:17:58;;;;;;;16.38;11.13;;;;;;;8.41;64.97;100492.22;5080385;28;20572;-78
2021/04/20 02:20:24;;;;;;;15.75;11.82;;;;;;;8.37;64.42;100490.25;5063599;28;20039;-79
2021/04/20 02:22:49;;;;;;;12.38;9.68;;;;;;;8.36;63.85;100494.13;5063418;28;20033;-79
2021/04/20 02:25:17;;;;;;;15.13;10.35;;;;;;;8.32;64.25;100487.50;5098487;28;20115;-79
2021/04/20 02:27:42;;;;;;;14.80;10.75;;;;;;;8.29;64.50;100480.59;5080384;28;20020;-78
2021/04/20 02:30:10;;;;;;;14.90;11.32;;;;;;;8.24;64.39;100480.59;5058914;28;20119;-78
2021/04/20 02:32:36;;;;;;;18.67;11.15;;;;;;;8.21;64.77;100476.44;5062714;28;20032;-78
2021/04/20 02:35:06;;;;;;;13.75;10.30;;;;;;;8.19;65.10;100475.06;5062872;28;20024;-78
2021/04/20 02:37:32;;;;;;;17.40;10.85;;;;;;;8.16;64.72;100478.38;5080251;28;20082;-78
2021/04/20 02:39:57;;;;;;;14.57;10.15;;;;;;;8.11;64.62;100476.47;5063241;28;20032;-78
2021/04/20 02:42:24;;;;;;;16.27;10.77;;;;;;;8.05;64.94;100472.03;5062750;28;20035;-78
2021/04/20 02:44:50;;;;;;;15.30;10.48;;;;;;;8.02;65.04;100470.69;5062766;28;20447;-78
2021/04/20 02:47:15;;;;;;;13.73;10.30;;;;;;;7.97;64.87;100478.16;5046073;28;20031;-78
2021/04/20 02:49:41;;;;;;;15.38;10.48;;;;;;;7.91;64.79;100470.94;5062882;28;20035;-78
2021/04/20 02:52:06;;;;;;;14.73;10.57;;;;;;;7.89;64.88;100462.13;5079257;28;20024;-78
2021/04/20 02:54:32;;;;;;;16.75;11.10;;;;;;;7.83;65.21;100470.41;5046130;28;20450;-79
2021/04/20 02:56:58;;;;;;;15.95;11.18;;;;;;;7.80;65.75;100464.56;5062546;28;20091;-78
2021/04/20 02:59:24;;;;;;;14.80;10.57;;;;;;;7.76;65.28;100463.47;5078967;28;20030;-78
2021/04/20 03:01:49;;;;;;;15.13;10.73;;;;;;;7.76;65.37;100464.31;5112806;28;20066;-78
2021/04/20 03:04:15;;;;;;;15.50;10.95;;;;;;;7.73;65.42;100462.09;5078908;28;20035;-78
2021/04/20 03:06:41;;;;;;;17.08;10.77;;;;;;;7.70;65.43;100467.38;5096992;28;20035;-78
2021/04/20 03:09:07;;;;;;;13.85;11.13;;;;;;;7.65;65.72;100462.66;5061538;28;20127;-78
2021/04/20 03:11:45;;;;;;;17.23;11.38;;;;;;;7.63;65.57;100461.25;5061652;28;20447;-78
2021/04/20 03:14:11;;;;;;;16.73;10.90;;;;;;;7.60;65.38;100466.25;5062208;28;20086;-78
2021/04/20 03:16:36;;;;;;;14.55;10.57;;;;;;;7.58;65.33;100462.13;5045205;28;20032;-78
2021/04/20 03:19:03;;;;;;;14.65;10.57;;;;;;;7.55;65.19;100462.63;5059960;28;20687;-78
2021/04/20 03:21:29;;;;;;;13.88;10.50;;;;;;;7.51;64.70;100467.06;5058041;28;20551;-78
2021/04/20 03:23:55;;;;;;;15.15;9.98;;;;;;;7.48;64.77;100456.56;5054602;28;20028;-78
2021/04/20 03:26:24;;;;;;;14.40;9.82;;;;;;;7.45;65.11;100462.66;5078542;28;20046;-78
2021/04/20 03:28:56;;;;;;;13.15;10.00;;;;;;;7.41;65.13;100459.59;5078678;28;20443;-77
2021/04/20 03:31:22;;;;;;;14.07;10.13;;;;;;;7.38;65.26;100452.69;5078470;28;20103;-76
2021/04/20 03:34:01;;;;;;;18.05;10.95;;;;;;;7.34;65.42;100451.56;5059426;28;20058;-77
2021/04/20 03:36:32;;;;;;;16.05;10.55;;;;;;;7.31;65.29;100452.13;5063660;28;20028;-76
2021/04/20 03:38:59;;;;;;;16.10;10.65;;;;;;;7.28;65.46;100458.19;5045740;28;20086;-77
2021/04/20 03:41:37;;;;;;;16.98;11.55;;;;;;;7.23;65.44;100455.41;5095832;28;20035;-77
2021/04/20 03:44:03;;;;;;;16.02;11.48;;;;;;;7.21;65.90;100452.09;5054758;28;20028;-77
2021/04/20 03:46:32;;;;;;;14.13;10.30;;;;;;;7.16;65.56;100455.69;5061629;28;20032;-77
2021/04/20 03:49:15;;;;;;;15.05;10.80;;;;;;;7.16;66.35;100457.63;5078069;28;20048;-78
2021/04/20 03:51:42;;;;;;;15.77;11.30;;;;;;;7.15;66.06;100454.00;5079379;28;20024;-76
2021/04/20 03:54:08;;;;;;;16.77;11.43;;;;;;;7.16;66.23;100449.34;5060640;28;20140;-77
2021/04/20 03:56:33;;;;;;;17.70;11.02;;;;;;;7.12;66.53;100459.25;5061641;28;20032;-77
2021/04/20 03:59:00;;;;;;;14.15;11.02;;;;;;;7.09;66.73;100454.28;5028262;28;20024;-77
2021/04/20 04:01:26;;;;;;;17.05;11.63;;;;;;;7.09;67.36;100454.28;5077967;28;20500;-77
2021/04/20 04:03:51;;;;;;;18.95;12.57;;;;;;;7.05;68.31;100456.78;5025877;28;20028;-76
2021/04/20 04:06:20;;;;;;;17.33;12.02;;;;;;;7.09;68.18;100454.28;5096108;28;20472;-77
2021/04/20 04:08:45;;;;;;;19.15;13.90;;;;;;;7.09;68.73;100454.28;5050982;28;20044;-77
2021/04/20 04:11:11;;;;;;;22.00;13.95;;;;;;;7.10;69.25;100450.41;5073623;28;20036;-77
2021/04/20 04:13:40;;;;;;;22.77;14.38;;;;;;;7.11;69.86;100446.56;5044367;28;20077;-77
2021/04/20 04:16:05;;;;;;;21.42;13.32;;;;;;;7.10;69.26;100448.50;5061607;28;20040;-77
2021/04/20 04:18:32;;;;;;;19.67;14.23;;;;;;;7.13;69.72;100444.34;5061653;28;20052;-77
2021/04/20 04:21:01;;;;;;;18.88;13.70;;;;;;;7.16;69.44;100446.59;5069837;28;20032;-77
2021/04/20 04:23:37;;;;;;;19.33;14.15;;;;;;;7.17;69.94;100431.66;5061458;28;20032;-77
2021/04/20 04:26:06;;;;;;;20.35;13.43;;;;;;;7.18;69.58;100438.81;5044875;28;20020;-77
2021/04/20 04:28:32;;;;;;;24.52;14.00;;;;;;;7.20;69.72;100433.03;5095014;28;20024;-77
2021/04/20 04:30:58;;;;;;;22.23;13.50;;;;;;;7.19;70.02;100434.97;5056632;28;20083;-77
2021/04/20 04:33:24;;;;;;;19.60;13.52;;;;;;;7.21;70.54;100430.00;5041202;28;20067;-77
2021/04/20 04:35:49;;;;;;;22.60;13.40;;;;;;;7.21;69.87;100432.75;5059884;28;20089;-77
2021/04/20 04:38:15;;;;;;;19.70;13.18;;;;;;;7.22;69.84;100431.66;5061244;28;20027;-78
2021/04/20 04:40:41;;;;;;;18.45;12.52;;;;;;;7.24;69.92;100432.22;5077585;28;20054;-77
2021/04/20 04:43:06;;;;;;;20.10;13.27;;;;;;;7.25;70.11;100431.13;5056395;28;20024;-77
2021/04/20 04:45:32;;;;;;;20.92;13.35;;;;;;;7.28;69.63;100436.09;5058581;28;20035;-77
2021/04/20 04:47:57;;;;;;;17.15;12.45;;;;;;;7.31;69.71;100435.53;5077431;28;20039;-77
2021/04/20 04:50:23;;;;;;;22.38;13.38;;;;;;;7.30;69.90;100428.38;5077367;28;20031;-77
2021/04/20 04:52:48;;;;;;;20.15;12.43;;;;;;;7.34;69.44;100437.75;5060611;28;20082;-77
2021/04/20 04:55:15;;;;;;;17.70;12.00;;;;;;;7.34;68.94;100443.28;5060524;28;20032;-77
2021/04/20 04:57:40;;;;;;;21.55;13.55;;;;;;;7.35;69.14;100436.66;5095269;28;20036;-77
2021/04/20 05:00:08;;;;;;;17.40;11.95;;;;;;;7.39;68.58;100446.06;5076957;28;20034;-77
2021/04/20 05:02:34;;;;;;;17.88;12.20;;;;;;;7.43;68.24;100439.97;5077282;28;20111;-78
2021/04/20 05:05:07;;;;;;;18.75;11.98;;;;;;;7.40;69.02;100438.59;5043999;28;20024;-77
2021/04/20 05:07:32;;;;;;;;;;;;;;;7.43;69.17;100443.56;5076565;28;20115;-78
2021/04/20 05:10:03;;;;;;;18.80;11.07;;;;;;;7.43;69.26;100442.75;5095171;28;19947;-77
2021/04/20 05:12:30;;;;;;;18.30;11.40;;;;;;;7.42;68.39;100436.38;5093911;28;20046;-77
2021/04/20 05:14:55;;;;;;;19.02;12.43;;;;;;;7.46;69.00;100439.41;5060198;28;20028;-77
2021/04/20 05:17:21;;;;;;;16.65;11.48;;;;;;;7.46;68.94;100434.72;5060173;28;20024;-76
2021/04/20 05:19:46;;;;;;;16.75;12.10;;;;;;;7.47;68.86;100438.34;5041733;28;20153;-77
2021/04/20 05:22:12;;;;;;;16.77;11.48;;;;;;;7.47;69.18;100446.63;5043354;28;20055;-77
2021/04/20 05:24:38;;;;;;;17.70;11.25;;;;;;;7.49;68.48;100450.75;5043702;28;20387;-77
2021/04/20 05:27:05;;;;;;;18.23;11.00;;;;;;;7.48;68.12;100445.50;5059539;28;20103;-77
2021/04/20 05:29:30;;;;;;;16.63;11.10;;;;;;;7.46;68.37;100450.47;5094982;28;20024;-76
2021/04/20 05:31:56;;;;;;;16.48;11.40;;;;;;;7.43;68.61;100449.09;5072117;28;20550;-78
2021/04/20 05:34:21;;;;;;;17.92;10.75;;;;;;;7.47;69.57;100449.38;5070490;28;20028;-78
2021/04/20 05:36:47;;;;;;;16.60;11.48;;;;;;;7.46;68.95;100450.47;5094812;28;20032;-78
2021/04/20 05:39:13;;;;;;;15.27;11.00;;;;;;;7.49;69.40;100452.69;5093534;28;20020;-77
2021/04/20 05:41:40;;;;;;;18.05;10.77;;;;;;;7.50;69.21;100451.59;5059660;28;20067;-77
2021/04/20 05:44:07;;;;;;;17.38;12.02;;;;;;;7.49;69.38;100452.69;5094474;28;20034;-77
2021/04/20 05:46:35;;;;;;;14.20;11.07;;;;;;;7.50;68.54;100448.84;5072658;28;20028;-76
2021/04/20 05:49:00;;;;;;;17.83;11.90;;;;;;;7.51;69.12;100459.59;5076775;28;20100;-77
2021/04/20 05:51:26;;;;;;;15.68;10.23;;;;;;;7.57;68.85;100460.44;5043091;28;20020;-77
2021/04/20 05:53:52;;;;;;;13.73;9.68;;;;;;;7.62;69.10;100463.19;5094650;28;20031;-77
2021/04/20 05:56:19;;;;;;;16.40;9.90;;;;;;;7.71;69.15;100460.72;5043699;28;20585;-79
2021/04/20 05:58:45;;;;;;;16.55;10.48;;;;;;;7.76;69.53;100464.31;5076472;28;20523;-77
2021/04/20 06:01:10;;;;;;;13.60;10.02;;;;;;;7.81;69.43;100467.09;5075822;28;20034;-78
2021/04/20 06:03:39;;;;;;;15.77;11.40;;;;;;;7.91;69.32;100459.88;5059477;28;20107;-77
2021/04/20 06:06:05;;;;;;;15.40;11.57;;;;;;;7.98;69.40;100463.19;5079195;28;20072;-77
2021/04/20 06:08:31;;;;;;;17.98;12.70;;;;;;;8.05;69.53;100458.19;5096614;28;20051;-77
2021/04/20 06:10:57;;;;;;;18.77;12.23;;;;;;;8.13;69.67;100457.63;5080501;28;20089;-77
2021/04/20 06:13:25;;;;;;;20.35;13.52;;;;;;;8.22;69.69;100460.69;5046859;28;20383;-77
2021/04/20 06:15:50;;;;;;;17.33;12.80;;;;;;;8.29;69.88;100462.03;5098289;28;20024;-76
2021/04/20 06:18:16;;;;;;;19.73;13.48;;;;;;;8.40;69.44;100457.34;5080099;28;20031;-77
2021/04/20 06:20:41;;;;;;;19.45;13.85;;;;;;;8.51;69.36;100458.16;5098684;28;20032;-77
2021/04/20 06:23:07;;;;;;;20.50;14.40;;;;;;;8.64;69.98;100453.97;5079568;28;20434;-77
2021/04/20 06:25:32;;;;;;;20.70;15.18;;;;;;;8.78;70.42;100452.25;5062999;28;20028;-78
2021/04/20 06:27:58;;;;;;;24.23;16.35;;;;;;;8.93;70.75;100454.94;5079957;28;20027;-78
2021/04/20 06:30:24;;;;;;;24.08;15.45;;;;;;;9.12;70.93;100457.88;5080204;28;20032;-78
2021/04/20 06:32:50;;;;;;;21.38;13.77;;;;;;;9.27;69.89;100458.91;5080024;28;20114;-78
2021/04/20 06:35:19;;;;;;;24.27;15.38;;;;;;;9.44;70.57;100459.34;5063644;28;20031;-78
2021/04/20 06:37:47;;;;;;;21.75;14.43;;;;;;;9.61;70.35;100459.78;5063439;28;20012;-77
2021/04/20 06:40:25;;;;;;;22.35;14.75;;;;;;;9.77;69.91;100463.25;5063353;28;20032;-77
2021/04/20 06:42:53;;;;;;;20.25;14.52;;;;;;;9.92;69.11;100456.75;5076802;28;20062;-78
2021/04/20 06:45:23;;;;;;;19.27;14.27;;;;;;;10.06;68.74;100454.97;5057087;28;20024;-77
2021/04/20 06:47:59;;;;;;;22.17;14.95;;;;;;;10.25;68.64;100463.38;5062650;28;20029;-77
2021/04/20 06:50:25;;;;;;;21.95;15.38;;;;;;;10.43;69.10;100456.28;5062688;28;20079;-78
2021/04/20 06:52:57;;;;;;;19.33;13.82;;;;;;;10.59;68.60;100458.91;5063048;28;20372;-77
2021/04/20 06:55:43;;;;;;;20.20;14.47;;;;;;;10.75;68.21;100460.34;5063312;28;20078;-78
2021/04/20 06:58:24;;;;;;;21.38;14.70;;;;;;;10.89;68.14;100458.53;5079108;28;20313;-78
2021/04/20 07:00:51;;;;;;;21.92;14.82;;;;;;;11.00;68.39;100448.06;5046196;28;20050;-78
2021/04/20 07:03:32;;;;;;;20.42;14.63;;;;;;;11.12;67.92;100450.44;5049274;28;20036;-78
2021/04/20 07:06:17;;;;;;;21.63;14.77;;;;;;;11.26;67.91;100453.31;5079165;28;20059;-79
2021/04/20 07:08:45;;;;;;;20.13;14.27;;;;;;;11.39;67.59;100453.38;5062406;28;20047;-78
2021/04/20 07:11:14;;;;;;;22.55;14.77;;;;;;;11.52;67.47;100456.53;5029437;28;20042;-79
2021/04/20 07:13:45;;;;;;;20.98;14.23;;;;;;;11.66;67.43;100446.28;5062611;28;20365;-78
2021/04/20 07:16:31;;;;;;;18.85;13.82;;;;;;;11.75;67.69;100444.44;5045757;28;20028;-78
2021/04/20 07:19:16;;;;;;;23.02;14.57;;;;;;;11.87;67.66;100448.75;5078963;28;20032;-79
2021/04/20 07:22:05;;;;;;;21.70;14.55;;;;;;;12.03;67.40;100450.13;5060515;28;20100;-78
2021/04/20 07:37:02;;;;;;;20.67;14.30;;;;;;;12.98;67.03;100461.66;4917344;29;20760;-82
2021/04/20 08:59:28;;;;;;;16.58;8.43;;;;;;;17.54;53.54;100428.97;4939312;28;20041;-79
2021/04/20 09:02:14;;;;;;;16.38;8.35;;;;;;;17.55;53.40;100428.66;4976354;28;20060;-79
2021/04/20 09:04:58;;;;;;;16.77;9.73;;;;;;;17.71;52.25;100423.19;5076885;28;20518;-80
2021/04/20 09:07:37;;;;;;;16.45;9.18;;;;;;;17.85;51.27;100425.75;5065533;28;20024;-78
2021/04/20 09:10:13;;;;;;;18.58;8.82;;;;;;;17.79;51.02;100429.94;5078092;28;20088;-79
2021/04/20 09:12:44;;;;;;;16.92;8.52;;;;;;;17.94;50.54;100429.31;5061086;28;20480;-79
2021/04/20 09:15:13;;;;;;;18.15;9.38;;;;;;;17.84;50.02;100432.53;5060842;28;20056;-79
2021/04/20 09:17:57;;;;;;;17.27;8.57;;;;;;;17.95;50.59;100430.94;5062381;28;20024;-79
2021/04/20 09:20:51;;;;;;;16.23;8.02;;;;;;;18.18;50.02;100439.78;5028356;28;20043;-79
2021/04/20 09:24:07;;;;;;;15.20;8.23;;;;;;;18.22;49.57;100431.47;5044895;28;20068;-78
2021/04/20 09:26:57;;;;;;;18.27;8.43;;;;;;;18.40;49.64;100430.13;5053206;28;20028;-79
2021/04/20 09:29:32;;;;;;;15.23;8.30;;;;;;;18.41;48.45;100437.38;5044034;28;20022;-79
2021/04/20 09:32:04;;;;;;;15.52;8.57;;;;;;;18.51;48.59;100431.31;5044646;28;20507;-79
2021/04/20 09:34:31;;;;;;;18.02;8.93;;;;;;;18.59;48.45;100432.38;5043528;28;20044;-78
2021/04/20 09:37:01;;;;;;;18.27;9.35;;;;;;;18.53;48.32;100434.59;5028287;28;20028;-79
2021/04/20 09:39:27;;;;;;;18.50;9.38;;;;;;;18.67;48.08;100433.44;5043589;28;20027;-78
2021/04/20 09:41:56;;;;;;;18.23;8.90;;;;;;;18.76;48.20;100425.75;5048056;28;20472;-78
2021/04/20 09:45:04;;;;;;;14.95;8.85;;;;;;;18.91;48.66;100436.28;5047908;28;20020;-79
2021/04/20 09:48:03;;;;;;;17.60;10.00;;;;;;;18.91;48.28;100427.00;5080393;28;20032;-78
2021/04/20 09:50:57;;;;;;;16.45;9.52;;;;;;;18.94;48.22;100426.31;5063570;28;20043;-79
2021/04/20 09:53:45;;;;;;;17.88;10.10;;;;;;;19.09;48.63;100417.16;5080987;28;20404;-79
2021/04/20 09:56:41;;;;;;;19.20;9.70;;;;;;;18.95;47.75;100419.53;5049366;28;20420;-79
2021/04/20 09:59:12;;;;;;;16.83;9.63;;;;;;;19.06;47.45;100422.69;5043460;28;20034;-78
2021/04/20 10:01:47;;;;;;;15.60;9.10;;;;;;;19.18;47.57;100425.47;5061011;28;20037;-78
2021/04/20 10:04:51;;;;;;;16.58;9.13;;;;;;;19.21;47.05;100419.13;5045915;28;20480;-79
2021/04/20 10:07:27;;;;;;;16.63;8.75;;;;;;;19.26;45.60;100423.69;5053597;28;20115;-78
2021/04/20 10:10:30;;;;;;;16.05;7.47;;;;;;;19.44;46.82;100413.78;5079952;28;20111;-79
2021/04/20 10:13:01;;;;;;;17.05;8.15;;;;;;;19.56;46.98;100421.41;5069201;28;20029;-79
2021/04/20 10:15:31;;;;;;;16.45;8.63;;;;;;;19.59;47.29;100417.88;5077428;28;20033;-78
2021/04/20 10:18:14;;;;;;;13.63;7.55;;;;;;;19.72;46.70;100416.66;5065729;28;20084;-79
2021/04/20 10:20:56;;;;;;;14.82;7.80;;;;;;;19.86;46.72;100414.25;5061672;28;20037;-78
2021/04/20 10:23:59;;;;;;;16.73;8.90;;;;;;;19.98;46.01;100409.75;5077939;28;20043;-79
2021/04/20 10:26:30;;;;;;;17.83;8.13;;;;;;;20.16;45.55;100416.69;5085509;28;20084;-78
2021/04/20 10:28:56;;;;;;;13.60;7.70;;;;;;;19.98;43.35;100410.56;5065485;28;20050;-78
2021/04/20 10:31:44;;;;;;;15.90;7.97;;;;;;;20.00;43.17;100410.19;5059409;28;20032;-79
2021/04/20 10:34:10;;;;;;;15.25;8.43;;;;;;;20.03;43.22;100407.50;5058607;28;20146;-78
2021/04/20 10:36:36;;;;;;;19.88;9.30;;;;;;;20.12;43.77;100409.31;5032145;28;20040;-78
2021/04/20 10:39:06;;;;;;;14.50;7.32;;;;;;;20.31;43.51;100404.63;5059373;28;20028;-79
2021/04/20 10:41:34;;;;;;;12.23;7.30;;;;;;;20.39;44.35;100399.13;5026155;28;20050;-79
2021/04/20 10:44:01;;;;;;;11.05;6.00;;;;;;;20.50;43.80;100394.59;5057017;28;20032;-79
2021/04/20 10:46:28;;;;;;;12.40;5.78;;;;;;;20.53;45.17;100397.56;5064623;28;20524;-78
2021/04/20 10:48:54;;;;;;;12.93;6.38;;;;;;;20.59;43.84;100395.28;5059199;28;20056;-79
2021/04/20 10:51:37;;;;;;;11.48;6.60;;;;;;;20.71;43.90;100389.53;5065511;28;20032;-78
2021/04/20 10:54:04;;;;;;;12.18;6.57;;;;;;;20.66;43.30;100391.81;5053890;28;20067;-79
2021/04/20 10:56:30;;;;;;;11.43;6.40;;;;;;;20.80;41.82;100388.50;5076552;28;20056;-79
2021/04/20 10:58:56;;;;;;;12.35;5.85;;;;;;;20.97;42.11;100385.28;5065275;28;20040;-79
2021/04/20 11:01:23;;;;;;;9.73;5.78;;;;;;;21.12;42.40;100387.25;5033372;28;20043;-79
2021/04/20 11:03:51;;;;;;;11.27;5.63;;;;;;;21.23;39.75;100386.66;5025940;28;20039;-80
2021/04/20 11:06:36;;;;;;;9.63;5.28;;;;;;;21.05;37.92;100380.63;5027413;28;20029;-79
2021/04/20 11:09:01;;;;;;;9.63;5.00;;;;;;;21.20;38.09;100377.78;5060653;28;20036;-79
2021/04/20 11:11:27;;;;;;;12.45;5.55;;;;;;;21.10;37.89;100383.97;5038846;28;20052;-78
2021/04/20 11:13:52;;;;;;;7.88;5.07;;;;;;;21.09;38.27;100379.53;5042182;28;20036;-78
2021/04/20 11:16:32;;;;;;;11.32;5.28;;;;;;;21.03;38.51;100377.34;5041804;28;20082;-78
2021/04/20 11:19:03;;;;;;;9.75;5.05;;;;;;;20.95;39.18;100376.38;5058897;28;20105;-78
2021/04/20 11:21:28;;;;;;;7.72;4.50;;;;;;;20.94;40.40;100374.72;5041817;28;20480;-78
2021/04/20 11:23:58;;;;;;;6.07;4.13;;;;;;;20.90;41.83;100373.84;5073208;28;20109;-78
2021/04/20 11:26:28;;;;;;;10.85;5.10;;;;;;;20.90;40.34;100368.19;5039677;28;20120;-78
2021/04/20 11:28:56;;;;;;;8.82;5.20;;;;;;;20.97;39.66;100368.34;5047861;28;20021;-79
2021/04/20 11:31:33;;;;;;;8.88;4.75;;;;;;;21.05;39.67;100370.16;5039297;28;20046;-79
2021/04/20 11:34:10;;;;;;;9.35;4.60;;;;;;;21.19;40.66;100364.81;5076446;28;20025;-79
2021/04/20 11:36:44;;;;;;;13.65;5.22;;;;;;;21.38;40.20;100368.88;5040404;28;20024;-79
2021/04/20 11:39:21;;;;;;;8.20;5.22;;;;;;;21.55;39.44;100359.97;5040913;28;20036;-79
2021/04/20 11:42:01;;;;;;;9.50;5.40;;;;;;;21.79;39.94;100352.38;5025949;28;20107;-79
2021/04/20 11:44:48;;;;;;;6.90;5.07;;;;;;;22.00;38.84;100352.75;5073871;28;20098;-79
2021/04/20 11:47:13;;;;;;;12.38;5.60;;;;;;;22.15;38.68;100353.00;5057683;28;20039;-79
2021/04/20 11:49:56;;;;;;;9.52;5.50;;;;;;;22.26;38.71;100345.59;5058133;28;20029;-79
2021/04/20 11:52:30;;;;;;;11.23;5.40;;;;;;;22.39;38.96;100349.03;5042409;28;20035;-79
2021/04/20 11:54:58;;;;;;;9.52;5.45;;;;;;;22.57;38.59;100352.19;5041387;28;20029;-79
2021/04/20 11:57:24;;;;;;;9.23;4.88;;;;;;;22.77;40.09;100347.22;5024638;28;20086;-79
2021/04/20 12:00:05;;;;;;;8.60;5.05;;;;;;;23.00;39.59;100352.84;5030582;28;20037;-80
2021/04/20 12:02:31;;;;;;;9.95;5.15;;;;;;;23.23;38.84;100345.06;5028342;28;20043;-78
2021/04/20 12:05:00;;;;;;;9.32;5.68;;;;;;;23.27;39.18;100356.47;5089509;28;20089;-77
2021/04/20 12:07:26;;;;;;;12.75;5.43;;;;;;;23.42;37.14;100349.78;5041209;28;20063;-73
2021/04/20 12:09:52;;;;;;;10.20;5.70;;;;;;;23.59;37.37;100351.19;5047215;28;20071;-82
2021/04/20 12:12:25;;;;;;;9.00;4.80;;;;;;;23.86;38.97;100344.25;5063955;28;20118;-83
2021/04/20 12:14:51;;;;;;;11.02;5.68;;;;;;;24.11;37.88;100349.38;5035436;28;20036;-82
2021/04/20 12:17:29;;;;;;;10.77;5.32;;;;;;;24.25;37.69;100349.50;5017209;28;20020;-82
2021/04/20 12:19:59;;;;;;;8.50;5.80;;;;;;;24.40;36.17;100330.56;5044703;28;20036;-82
2021/04/20 12:23:17;;;;;;;9.20;5.65;;;;;;;24.53;35.78;100331.94;5051945;28;20115;-82
2021/04/20 12:26:05;;;;;;;12.27;6.15;;;;;;;24.64;35.75;100334.84;5051926;28;20035;-82
2021/04/20 12:28:41;;;;;;;10.45;5.55;;;;;;;24.58;35.67;100339.28;5041784;28;20557;-82
2021/04/20 12:31:07;;;;;;;9.70;6.03;;;;;;;24.41;35.53;100334.25;5044409;28;20084;-82
2021/04/20 12:33:34;;;;;;;9.88;6.40;;;;;;;24.21;35.33;100345.84;5061208;28;20024;-76
2021/04/20 12:36:00;;;;;;;9.20;5.63;;;;;;;24.04;35.77;100338.78;5077536;28;20036;-81
2021/04/20 12:38:29;;;;;;;8.45;5.82;;;;;;;23.60;36.95;100347.19;5061185;28;20028;-76
2021/04/20 12:41:28;;;;;;;10.57;5.88;;;;;;;23.23;36.53;100345.06;5031046;28;20035;-79
2021/04/20 12:44:12;;;;;;;11.82;7.10;;;;;;;22.65;37.33;100336.91;5058152;28;20032;-78
2021/04/20 12:46:41;;;;;;;10.95;6.35;;;;;;;22.35;38.06;100336.84;5046721;28;20038;-76
2021/04/20 12:49:10;;;;;;;9.48;5.65;;;;;;;21.91;38.03;100342.91;5060897;28;20028;-77
2021/04/20 12:51:39;;;;;;;12.20;6.38;;;;;;;22.07;38.05;100333.09;5044497;28;20031;-77
2021/04/20 12:54:10;;;;;;;13.40;6.13;;;;;;;21.90;38.32;100346.91;5057614;28;20025;-81
2021/04/20 12:56:41;;;;;;;9.75;6.32;;;;;;;21.71;38.22;100339.28;5050682;28;20040;-78
2021/04/20 12:59:09;;;;;;;9.65;5.50;;;;;;;21.60;39.01;100337.06;5043517;28;20063;-78
2021/04/20 13:01:36;;;;;;;11.25;6.15;;;;;;;21.31;39.45;100335.63;5083655;28;20035;-78
2021/04/20 13:04:33;;;;;;;12.23;7.53;;;;;;;20.95;39.94;100337.69;5041457;28;20115;-79
2021/04/20 13:06:59;;;;;;;10.07;6.63;;;;;;;21.05;40.05;100343.94;5077870;28;20383;-79